sensor_id;sensor_type;location;lat;lon;timestamp;pressure;altitude;pressure_sealevel;temperature;humidity
59767;BME280;46248;58.364;25.582;2022-10-19T00:01:43;100297.75;;;6.75;93.51
59767;BME280;46248;58.364;25.582;2022-10-19T00:05:06;100293.44;;;6.74;93.32
59767;BME280;46248;58.364;25.582;2022-10-19T00:08:30;100298.72;;;6.73;93.19
59767;BME280;46248;58.364;25.582;2022-10-19T00:11:52;100297.06;;;6.70;93.12
59767;BME280;46248;58.364;25.582;2022-10-19T00:15:14;100291.03;;;6.70;92.81
59767;BME280;46248;58.364;25.582;2022-10-19T00:18:36;100297.13;;;6.69;92.77
59767;BME280;46248;58.364;25.582;2022-10-19T00:21:57;100296.28;;;6.68;93.19
59767;BME280;46248;58.364;25.582;2022-10-19T00:25:21;100304.28;;;6.63;92.70
59767;BME280;46248;58.364;25.582;2022-10-19T00:28:43;100298.38;;;6.58;92.27
59767;BME280;46248;58.364;25.582;2022-10-19T00:32:06;100308.78;;;6.58;92.10
59767;BME280;46248;58.364;25.582;2022-10-19T00:35:27;100304.56;;;6.56;92.35
59767;BME280;46248;58.364;25.582;2022-10-19T00:38:49;100290.09;;;6.49;91.98
59767;BME280;46248;58.364;25.582;2022-10-19T00:42:12;100302.03;;;6.54;92.30
59767;BME280;46248;58.364;25.582;2022-10-19T00:45:35;100313.31;;;6.53;91.92
59767;BME280;46248;58.364;25.582;2022-10-19T00:48:58;100318.63;;;6.50;91.96
59767;BME280;46248;58.364;25.582;2022-10-19T00:52:24;100328.31;;;6.47;91.59
59767;BME280;46248;58.364;25.582;2022-10-19T00:55:47;100326.66;;;6.44;91.46
59767;BME280;46248;58.364;25.582;2022-10-19T00:59:12;100327.69;;;6.40;91.93
59767;BME280;46248;58.364;25.582;2022-10-19T01:02:35;100329.44;;;6.39;91.00
59767;BME280;46248;58.364;25.582;2022-10-19T01:05:58;100336.34;;;6.40;91.51
59767;BME280;46248;58.364;25.582;2022-10-19T01:09:20;100335.56;;;6.38;91.20
59767;BME280;46248;58.364;25.582;2022-10-19T01:13:01;100342.69;;;6.33;91.29
59767;BME280;46248;58.364;25.582;2022-10-19T01:16:33;100338.47;;;6.29;91.33
59767;BME280;46248;58.364;25.582;2022-10-19T01:28:18;100352.56;;;6.24;90.93
59767;BME280;46248;58.364;25.582;2022-10-19T01:31:56;100337.34;;;6.13;90.91
59767;BME280;46248;58.364;25.582;2022-10-19T01:35:25;100347.75;;;6.13;90.29
59767;BME280;46248;58.364;25.582;2022-10-19T01:38:53;100334.22;;;6.03;90.16
59767;BME280;46248;58.364;25.582;2022-10-19T01:42:23;100351.41;;;6.07;89.51
59767;BME280;46248;58.364;25.582;2022-10-19T01:45:51;100341.41;;;5.96;89.18
59767;BME280;46248;58.364;25.582;2022-10-19T01:49:20;100350.84;;;5.99;88.59
59767;BME280;46248;58.364;25.582;2022-10-19T01:52:46;100351.00;;;5.94;88.71
59767;BME280;46248;58.364;25.582;2022-10-19T01:56:11;100359.72;;;5.92;86.35
59767;BME280;46248;58.364;25.582;2022-10-19T01:59:35;100350.56;;;5.80;86.73
59767;BME280;46248;58.364;25.582;2022-10-19T02:02:59;100354.19;;;5.76;86.86
59767;BME280;46248;58.364;25.582;2022-10-19T02:06:23;100368.72;;;5.82;87.27
59767;BME280;46248;58.364;25.582;2022-10-19T02:09:44;100373.13;;;5.80;87.13
59767;BME280;46248;58.364;25.582;2022-10-19T02:13:06;100376.66;;;5.77;87.33
59767;BME280;46248;58.364;25.582;2022-10-19T02:16:31;100379.34;;;5.76;87.68
59767;BME280;46248;58.364;25.582;2022-10-19T02:19:54;100387.25;;;5.71;87.30
59767;BME280;46248;58.364;25.582;2022-10-19T02:23:20;100380.63;;;5.62;87.20
59767;BME280;46248;58.364;25.582;2022-10-19T02:26:43;100380.28;;;5.46;85.76
59767;BME280;46248;58.364;25.582;2022-10-19T02:30:07;100379.56;;;5.41;86.60
59767;BME280;46248;58.364;25.582;2022-10-19T02:33:29;100384.28;;;5.30;85.62
59767;BME280;46248;58.364;25.582;2022-10-19T02:36:52;100384.78;;;5.13;85.96
59767;BME280;46248;58.364;25.582;2022-10-19T02:40:16;100377.44;;;4.99;84.72
59767;BME280;46248;58.364;25.582;2022-10-19T02:43:41;100395.63;;;4.98;84.98
59767;BME280;46248;58.364;25.582;2022-10-19T02:47:06;100406.97;;;4.95;84.60
59767;BME280;46248;58.364;25.582;2022-10-19T02:50:31;100412.41;;;4.86;84.08
59767;BME280;46248;58.364;25.582;2022-10-19T02:53:52;100416.22;;;4.74;83.75
59767;BME280;46248;58.364;25.582;2022-10-19T02:57:18;100423.31;;;4.68;84.00
59767;BME280;46248;58.364;25.582;2022-10-19T03:00:40;100417.50;;;4.59;84.68
59767;BME280;46248;58.364;25.582;2022-10-19T03:04:02;100412.72;;;4.46;83.99
59767;BME280;46248;58.364;25.582;2022-10-19T03:07:24;100418.06;;;4.40;84.67
59767;BME280;46248;58.364;25.582;2022-10-19T03:10:46;100427.75;;;4.33;84.38
59767;BME280;46248;58.364;25.582;2022-10-19T03:14:09;100419.41;;;4.22;85.08
59767;BME280;46248;58.364;25.582;2022-10-19T03:17:31;100425.75;;;4.11;85.22
59767;BME280;46248;58.364;25.582;2022-10-19T03:21:01;100419.84;;;4.05;85.25
59767;BME280;46248;58.364;25.582;2022-10-19T03:24:23;100431.38;;;3.93;84.84
59767;BME280;46248;58.364;25.582;2022-10-19T03:27:45;100435.06;;;3.84;85.28
59767;BME280;46248;58.364;25.582;2022-10-19T03:31:09;100438.59;;;3.80;84.95
59767;BME280;46248;58.364;25.582;2022-10-19T03:34:31;100432.81;;;3.69;84.90
59767;BME280;46248;58.364;25.582;2022-10-19T03:37:52;100445.91;;;3.64;84.85
59767;BME280;46248;58.364;25.582;2022-10-19T03:41:14;100431.47;;;3.54;85.42
59767;BME280;46248;58.364;25.582;2022-10-19T03:44:36;100440.16;;;3.52;85.24
59767;BME280;46248;58.364;25.582;2022-10-19T03:47:59;100436.06;;;3.43;85.72
59767;BME280;46248;58.364;25.582;2022-10-19T03:51:22;100438.91;;;3.31;86.15
59767;BME280;46248;58.364;25.582;2022-10-19T03:54:45;100453.75;;;3.24;86.75
59767;BME280;46248;58.364;25.582;2022-10-19T03:58:07;100453.91;;;3.16;86.41
59767;BME280;46248;58.364;25.582;2022-10-19T04:01:31;100448.84;;;3.10;86.83
59767;BME280;46248;58.364;25.582;2022-10-19T04:04:54;100452.41;;;3.06;87.12
59767;BME280;46248;58.364;25.582;2022-10-19T04:08:16;100449.13;;;2.98;87.88
59767;BME280;46248;58.364;25.582;2022-10-19T04:11:38;100450.09;;;2.92;87.31
59767;BME280;46248;58.364;25.582;2022-10-19T04:15:00;100454.56;;;2.84;87.62
59767;BME280;46248;58.364;25.582;2022-10-19T04:18:22;100436.84;;;2.66;88.14
59767;BME280;46248;58.364;25.582;2022-10-19T04:21:47;100462.56;;;2.72;88.61
59767;BME280;46248;58.364;25.582;2022-10-19T04:25:09;100459.25;;;2.65;89.16
59767;BME280;46248;58.364;25.582;2022-10-19T04:28:31;100461.13;;;2.57;89.01
59767;BME280;46248;58.364;25.582;2022-10-19T04:31:53;100448.56;;;2.40;89.70
59767;BME280;46248;58.364;25.582;2022-10-19T04:35:15;100460.47;;;2.47;89.05
59767;BME280;46248;58.364;25.582;2022-10-19T04:38:38;100451.25;;;2.34;89.41
59767;BME280;46248;58.364;25.582;2022-10-19T04:42:00;100466.72;;;2.36;90.01
59767;BME280;46248;58.364;25.582;2022-10-19T04:45:22;100470.34;;;2.27;90.04
59767;BME280;46248;58.364;25.582;2022-10-19T04:48:45;100466.09;;;2.23;89.76
59767;BME280;46248;58.364;25.582;2022-10-19T04:52:07;100468.72;;;2.20;89.94
59767;BME280;46248;58.364;25.582;2022-10-19T04:55:30;100485.13;;;2.17;90.25
59767;BME280;46248;58.364;25.582;2022-10-19T04:58:54;100479.09;;;2.17;90.11
59767;BME280;46248;58.364;25.582;2022-10-19T05:02:17;100479.22;;;2.11;90.23
59767;BME280;46248;58.364;25.582;2022-10-19T05:05:39;100472.56;;;1.97;90.65
59767;BME280;46248;58.364;25.582;2022-10-19T05:09:00;100492.22;;;2.06;90.61
59767;BME280;46248;58.364;25.582;2022-10-19T05:16:50;100494.91;;;1.98;90.48
59767;BME280;46248;58.364;25.582;2022-10-19T05:20:12;100506.09;;;2.00;90.41
59767;BME280;46248;58.364;25.582;2022-10-19T05:23:34;100466.88;;;1.75;90.16
59767;BME280;46248;58.364;25.582;2022-10-19T05:31:11;100519.91;;;1.96;89.66
59767;BME280;46248;58.364;25.582;2022-10-19T05:34:34;100503.72;;;1.87;90.09
59767;BME280;46248;58.364;25.582;2022-10-19T05:37:56;100520.84;;;1.92;89.95
59767;BME280;46248;58.364;25.582;2022-10-19T05:44:43;100539.72;;;1.96;90.10
59767;BME280;46248;58.364;25.582;2022-10-19T05:48:05;100539.66;;;1.99;89.49
59767;BME280;46248;58.364;25.582;2022-10-19T05:56:22;100533.59;;;2.03;88.98
59767;BME280;46248;58.364;25.582;2022-10-19T05:59:44;100537.88;;;2.04;88.94
59767;BME280;46248;58.364;25.582;2022-10-19T06:03:06;100520.88;;;1.91;88.98
59767;BME280;46248;58.364;25.582;2022-10-19T06:06:30;100533.59;;;2.03;88.89
59767;BME280;46248;58.364;25.582;2022-10-19T06:09:52;100546.41;;;2.09;89.22
59767;BME280;46248;58.364;25.582;2022-10-19T06:13:18;100551.50;;;2.14;89.49
59767;BME280;46248;58.364;25.582;2022-10-19T06:16:40;100550.59;;;2.16;88.51
59767;BME280;46248;58.364;25.582;2022-10-19T06:24:25;100565.06;;;2.26;88.69
59767;BME280;46248;58.364;25.582;2022-10-19T06:27:47;100564.25;;;2.23;88.38
59767;BME280;46248;58.364;25.582;2022-10-19T06:31:11;100563.31;;;2.28;88.24
59767;BME280;46248;58.364;25.582;2022-10-19T06:34:34;100558.19;;;2.25;88.75
59767;BME280;46248;58.364;25.582;2022-10-19T06:37:56;100587.19;;;2.43;88.14
59767;BME280;46248;58.364;25.582;2022-10-19T06:41:18;100587.94;;;2.48;87.88
59767;BME280;46248;58.364;25.582;2022-10-19T06:44:40;100582.72;;;2.51;88.12
59767;BME280;46248;58.364;25.582;2022-10-19T06:48:04;100585.25;;;2.54;87.69
59767;BME280;46248;58.364;25.582;2022-10-19T06:51:29;100581.81;;;2.55;87.18
59767;BME280;46248;58.364;25.582;2022-10-19T06:55:16;100597.16;;;2.64;87.31
59767;BME280;46248;58.364;25.582;2022-10-19T06:58:39;100605.59;;;2.75;86.79
59767;BME280;46248;58.364;25.582;2022-10-19T07:02:01;100602.00;;;2.83;86.06
59767;BME280;46248;58.364;25.582;2022-10-19T07:05:25;100578.78;;;2.80;86.12
59767;BME280;46248;58.364;25.582;2022-10-19T07:08:47;100606.06;;;2.97;86.37
59767;BME280;46248;58.364;25.582;2022-10-19T07:12:08;100616.28;;;3.02;85.73
59767;BME280;46248;58.364;25.582;2022-10-19T07:15:31;100625.63;;;3.11;85.21
59767;BME280;46248;58.364;25.582;2022-10-19T07:23:17;100638.31;;;3.25;85.34
59767;BME280;46248;58.364;25.582;2022-10-19T07:26:39;100635.59;;;3.31;85.54
59767;BME280;46248;58.364;25.582;2022-10-19T07:30:01;100645.00;;;3.35;84.41
59767;BME280;46248;58.364;25.582;2022-10-19T07:33:23;100631.94;;;3.41;83.11
59767;BME280;46248;58.364;25.582;2022-10-19T07:36:45;100634.50;;;3.42;83.83
59767;BME280;46248;58.364;25.582;2022-10-19T07:40:11;100612.38;;;3.26;83.31
59767;BME280;46248;58.364;25.582;2022-10-19T07:43:33;100644.50;;;3.59;83.85
59767;BME280;46248;58.364;25.582;2022-10-19T07:46:55;100648.59;;;3.71;83.10
59767;BME280;46248;58.364;25.582;2022-10-19T07:50:22;100659.53;;;3.85;82.32
59767;BME280;46248;58.364;25.582;2022-10-19T07:53:46;100644.88;;;3.83;82.32
59767;BME280;46248;58.364;25.582;2022-10-19T07:57:11;100662.19;;;3.81;80.82
59767;BME280;46248;58.364;25.582;2022-10-19T08:00:33;100659.38;;;3.92;81.21
59767;BME280;46248;58.364;25.582;2022-10-19T08:03:56;100670.47;;;3.98;79.98
59767;BME280;46248;58.364;25.582;2022-10-19T08:07:39;100683.22;;;4.07;80.56
59767;BME280;46248;58.364;25.582;2022-10-19T08:11:05;100685.53;;;4.20;80.19
59767;BME280;46248;58.364;25.582;2022-10-19T08:14:29;100695.59;;;4.33;79.53
59767;BME280;46248;58.364;25.582;2022-10-19T08:17:51;100681.94;;;4.27;76.76
59767;BME280;46248;58.364;25.582;2022-10-19T08:21:13;100678.66;;;4.19;77.65
59767;BME280;46248;58.364;25.582;2022-10-19T08:24:35;100715.50;;;4.31;78.18
59767;BME280;46248;58.364;25.582;2022-10-19T08:27:57;100717.97;;;4.38;77.17
59767;BME280;46248;58.364;25.582;2022-10-19T08:36:08;100724.75;;;4.43;76.49
59767;BME280;46248;58.364;25.582;2022-10-19T08:39:30;100742.78;;;4.48;76.43
59767;BME280;46248;58.364;25.582;2022-10-19T08:42:56;100729.03;;;4.46;75.67
59767;BME280;46248;58.364;25.582;2022-10-19T08:46:24;100723.00;;;4.45;74.26
59767;BME280;46248;58.364;25.582;2022-10-19T08:49:53;100744.53;;;4.49;75.78
59767;BME280;46248;58.364;25.582;2022-10-19T08:53:22;100747.00;;;4.53;75.63
59767;BME280;46248;58.364;25.582;2022-10-19T08:56:52;100751.25;;;4.56;74.92
59767;BME280;46248;58.364;25.582;2022-10-19T09:00:34;100740.25;;;4.46;75.29
59767;BME280;46248;58.364;25.582;2022-10-19T09:04:05;100757.34;;;4.55;75.04
59767;BME280;46248;58.364;25.582;2022-10-19T09:07:30;100758.25;;;4.54;74.85
59767;BME280;46248;58.364;25.582;2022-10-19T09:10:55;100757.28;;;4.56;75.54
59767;BME280;46248;58.364;25.582;2022-10-19T09:14:22;100757.34;;;4.55;75.97
59767;BME280;46248;58.364;25.582;2022-10-19T09:17:46;100751.06;;;4.65;73.83
59767;BME280;46248;58.364;25.582;2022-10-19T09:21:12;100763.88;;;4.71;73.78
59767;BME280;46248;58.364;25.582;2022-10-19T09:24:40;100769.75;;;4.79;72.40
59767;BME280;46248;58.364;25.582;2022-10-19T09:28:24;100755.84;;;4.82;71.65
59767;BME280;46248;58.364;25.582;2022-10-19T09:32:00;100780.81;;;4.86;72.26
59767;BME280;46248;58.364;25.582;2022-10-19T09:35:27;100787.69;;;4.89;72.42
59767;BME280;46248;58.364;25.582;2022-10-19T09:38:51;100720.06;;;4.61;71.17
59767;BME280;46248;58.364;25.582;2022-10-19T09:42:20;100790.50;;;4.79;71.34
59767;BME280;46248;58.364;25.582;2022-10-19T09:45:49;100792.03;;;4.88;72.51
59767;BME280;46248;58.364;25.582;2022-10-19T09:49:12;100798.47;;;5.09;72.40
59767;BME280;46248;58.364;25.582;2022-10-19T09:52:36;100789.69;;;5.15;71.64
59767;BME280;46248;58.364;25.582;2022-10-19T09:56:02;100781.00;;;5.14;71.57
59767;BME280;46248;58.364;25.582;2022-10-19T09:59:29;100804.94;;;5.27;71.30
59767;BME280;46248;58.364;25.582;2022-10-19T10:02:53;100814.59;;;5.22;72.05
59767;BME280;46248;58.364;25.582;2022-10-19T10:10:01;100806.81;;;5.20;72.09
59767;BME280;46248;58.364;25.582;2022-10-19T10:13:29;100810.94;;;5.29;72.87
59767;BME280;46248;58.364;25.582;2022-10-19T10:16:54;100808.19;;;5.35;72.04
59767;BME280;46248;58.364;25.582;2022-10-19T10:20:26;100818.25;;;5.47;71.66
59767;BME280;46248;58.364;25.582;2022-10-19T10:24:02;100821.44;;;5.60;70.65
59767;BME280;46248;58.364;25.582;2022-10-19T10:27:29;100839.47;;;5.65;70.45
59767;BME280;46248;58.364;25.582;2022-10-19T10:30:55;100828.34;;;5.60;69.45
59767;BME280;46248;58.364;25.582;2022-10-19T10:34:31;100832.69;;;5.59;67.50
59767;BME280;46248;58.364;25.582;2022-10-19T10:38:17;100833.44;;;5.64;66.64
59767;BME280;46248;58.364;25.582;2022-10-19T10:41:42;100838.31;;;5.77;66.39
59767;BME280;46248;58.364;25.582;2022-10-19T10:45:15;100827.75;;;5.83;65.25
59767;BME280;46248;58.364;25.582;2022-10-19T10:48:40;100806.97;;;5.83;65.53
59767;BME280;46248;58.364;25.582;2022-10-19T10:57:17;100848.22;;;5.96;65.04
59767;BME280;46248;58.364;25.582;2022-10-19T11:00:49;100847.44;;;5.91;66.66
59767;BME280;46248;58.364;25.582;2022-10-19T11:04:16;100856.88;;;5.97;65.23
59767;BME280;46248;58.364;25.582;2022-10-19T11:07:42;100843.81;;;5.99;65.21
59767;BME280;46248;58.364;25.582;2022-10-19T11:11:11;100791.63;;;5.73;63.73
59767;BME280;46248;58.364;25.582;2022-10-19T11:15:04;100716.09;;;5.16;64.40
59767;BME280;46248;58.364;25.582;2022-10-19T11:18:41;100868.09;;;5.99;63.38
59767;BME280;46248;58.364;25.582;2022-10-19T11:22:19;100871.53;;;6.00;64.31
59767;BME280;46248;58.364;25.582;2022-10-19T11:25:56;100861.00;;;6.04;64.89
59767;BME280;46248;58.364;25.582;2022-10-19T11:29:33;100869.31;;;6.17;64.91
59767;BME280;46248;58.364;25.582;2022-10-19T11:37:03;100876.22;;;6.18;61.65
59767;BME280;46248;58.364;25.582;2022-10-19T11:40:32;100857.53;;;6.05;61.53
59767;BME280;46248;58.364;25.582;2022-10-19T11:44:10;100878.69;;;6.23;61.33
59767;BME280;46248;58.364;25.582;2022-10-19T11:47:57;100864.28;;;6.11;61.10
59767;BME280;46248;58.364;25.582;2022-10-19T11:51:30;100890.81;;;6.24;61.04
59767;BME280;46248;58.364;25.582;2022-10-19T11:55:01;100868.72;;;6.07;60.63
59767;BME280;46248;58.364;25.582;2022-10-19T11:58:36;100901.47;;;6.14;60.92
59767;BME280;46248;58.364;25.582;2022-10-19T12:02:17;100890.09;;;6.17;62.06
59767;BME280;46248;58.364;25.582;2022-10-19T12:06:02;100900.72;;;6.40;61.31
59767;BME280;46248;58.364;25.582;2022-10-19T12:09:38;100899.63;;;6.49;61.54
59767;BME280;46248;58.364;25.582;2022-10-19T12:13:10;100903.66;;;6.59;62.12
59767;BME280;46248;58.364;25.582;2022-10-19T12:16:37;100900.00;;;6.67;60.68
59767;BME280;46248;58.364;25.582;2022-10-19T12:20:03;100906.88;;;6.69;61.19
59767;BME280;46248;58.364;25.582;2022-10-19T12:23:31;100898.16;;;6.70;58.56
59767;BME280;46248;58.364;25.582;2022-10-19T12:26:53;100894.16;;;6.58;59.36
59767;BME280;46248;58.364;25.582;2022-10-19T12:30:19;100899.38;;;6.58;59.95
59767;BME280;46248;58.364;25.582;2022-10-19T12:33:46;100902.03;;;6.57;59.55
59767;BME280;46248;58.364;25.582;2022-10-19T12:37:12;100899.50;;;6.54;60.01
59767;BME280;46248;58.364;25.582;2022-10-19T12:40:42;100908.94;;;6.56;58.85
59767;BME280;46248;58.364;25.582;2022-10-19T12:44:36;100908.69;;;6.65;59.74
59767;BME280;46248;58.364;25.582;2022-10-19T12:48:21;100872.97;;;6.41;59.36
59767;BME280;46248;58.364;25.582;2022-10-19T12:51:44;100920.16;;;6.60;58.51
59767;BME280;46248;58.364;25.582;2022-10-19T12:55:18;100915.22;;;6.51;57.93
59767;BME280;46248;58.364;25.582;2022-10-19T12:58:48;100912.91;;;6.40;57.95
59767;BME280;46248;58.364;25.582;2022-10-19T13:02:23;100911.13;;;6.40;58.19
59767;BME280;46248;58.364;25.582;2022-10-19T13:05:56;100911.97;;;6.41;58.90
59767;BME280;46248;58.364;25.582;2022-10-19T13:09:22;100928.38;;;6.45;58.29
59767;BME280;46248;58.364;25.582;2022-10-19T13:12:46;100915.09;;;6.23;58.80
59767;BME280;46248;58.364;25.582;2022-10-19T13:20:47;100943.91;;;6.15;59.09
59767;BME280;46248;58.364;25.582;2022-10-19T13:24:36;100947.53;;;6.09;58.86
59767;BME280;46248;58.364;25.582;2022-10-19T13:28:36;100946.78;;;6.04;59.18
59767;BME280;46248;58.364;25.582;2022-10-19T13:32:36;100952.06;;;6.01;59.51
59767;BME280;46248;58.364;25.582;2022-10-19T13:36:05;100958.19;;;5.99;59.84
59767;BME280;46248;58.364;25.582;2022-10-19T13:39:29;100960.84;;;5.95;59.74
59767;BME280;46248;58.364;25.582;2022-10-19T13:42:58;100956.63;;;5.90;59.39
59767;BME280;46248;58.364;25.582;2022-10-19T13:46:23;100954.97;;;5.87;59.99
59767;BME280;46248;58.364;25.582;2022-10-19T13:50:05;100950.03;;;5.77;58.69
59767;BME280;46248;58.364;25.582;2022-10-19T13:53:38;100928.84;;;5.58;59.79
59767;BME280;46248;58.364;25.582;2022-10-19T13:57:13;100965.69;;;5.73;60.41
59767;BME280;46248;58.364;25.582;2022-10-19T14:00:52;100965.78;;;5.70;60.28
59767;BME280;46248;58.364;25.582;2022-10-19T14:04:21;100951.53;;;5.51;60.41
59767;BME280;46248;58.364;25.582;2022-10-19T14:07:57;100989.31;;;5.64;60.83
59767;BME280;46248;58.364;25.582;2022-10-19T14:11:25;100985.03;;;5.62;61.47
59767;BME280;46248;58.364;25.582;2022-10-19T14:14:50;100986.00;;;5.58;60.78
59767;BME280;46248;58.364;25.582;2022-10-19T14:18:26;100999.13;;;5.51;60.82
59767;BME280;46248;58.364;25.582;2022-10-19T14:21:49;101005.25;;;5.47;61.07
59767;BME280;46248;58.364;25.582;2022-10-19T14:25:16;101009.69;;;5.44;61.67
59767;BME280;46248;58.364;25.582;2022-10-19T14:28:39;100986.81;;;5.21;61.58
59767;BME280;46248;58.364;25.582;2022-10-19T15:01:57;101038.88;;;4.70;64.68
59767;BME280;46248;58.364;25.582;2022-10-19T15:05:22;101045.06;;;4.63;65.11
59767;BME280;46248;58.364;25.582;2022-10-19T15:08:48;101022.91;;;4.45;64.85
59767;BME280;46248;58.364;25.582;2022-10-19T15:12:21;101046.22;;;4.45;64.94
59767;BME280;46248;58.364;25.582;2022-10-19T15:15:49;101051.53;;;4.39;65.30
59767;BME280;46248;58.364;25.582;2022-10-19T15:19:23;101049.09;;;4.31;65.76
59767;BME280;46248;58.364;25.582;2022-10-19T15:22:50;101051.81;;;4.22;65.50
59767;BME280;46248;58.364;25.582;2022-10-19T15:26:19;101045.09;;;4.10;65.77
59767;BME280;46248;58.364;25.582;2022-10-19T15:29:54;101063.31;;;4.05;66.01
59767;BME280;46248;58.364;25.582;2022-10-19T15:33:19;101034.28;;;3.83;66.62
59767;BME280;46248;58.364;25.582;2022-10-19T15:36:56;101045.69;;;3.73;67.14
59767;BME280;46248;58.364;25.582;2022-10-19T15:40:24;101068.94;;;3.75;67.20
59767;BME280;46248;58.364;25.582;2022-10-19T15:43:53;101040.81;;;3.52;67.56
59767;BME280;46248;58.364;25.582;2022-10-19T15:47:20;101079.44;;;3.65;68.31
59767;BME280;46248;58.364;25.582;2022-10-19T15:50:46;101084.78;;;3.53;68.65
59767;BME280;46248;58.364;25.582;2022-10-19T15:54:13;101090.94;;;3.44;68.48
59767;BME280;46248;58.364;25.582;2022-10-19T15:57:38;101094.53;;;3.33;69.29
59767;BME280;46248;58.364;25.582;2022-10-19T16:01:02;101110.16;;;3.24;69.69
59767;BME280;46248;58.364;25.582;2022-10-19T16:04:27;101086.31;;;3.00;70.44
59767;BME280;46248;58.364;25.582;2022-10-19T16:07:53;101114.69;;;3.06;70.30
59767;BME280;46248;58.364;25.582;2022-10-19T16:11:21;101113.88;;;3.01;70.45
59767;BME280;46248;58.364;25.582;2022-10-19T16:14:44;101068.56;;;2.66;71.06
59767;BME280;46248;58.364;25.582;2022-10-19T16:18:09;101117.47;;;2.88;71.61
59767;BME280;46248;58.364;25.582;2022-10-19T16:21:36;101102.94;;;2.74;71.60
59767;BME280;46248;58.364;25.582;2022-10-19T16:29:47;101113.34;;;2.67;72.59
59767;BME280;46248;58.364;25.582;2022-10-19T16:33:10;101109.94;;;2.62;72.87
59767;BME280;46248;58.364;25.582;2022-10-19T16:40:28;101115.22;;;2.49;72.95
59767;BME280;46248;58.364;25.582;2022-10-19T16:43:53;101129.88;;;2.49;73.59
59767;BME280;46248;58.364;25.582;2022-10-19T16:47:16;101122.22;;;2.40;73.35
59767;BME280;46248;58.364;25.582;2022-10-19T16:50:39;101135.94;;;2.42;73.62
59767;BME280;46248;58.364;25.582;2022-10-19T16:54:03;101136.00;;;2.37;73.60
59767;BME280;46248;58.364;25.582;2022-10-19T16:57:25;101129.16;;;2.32;74.29
59767;BME280;46248;58.364;25.582;2022-10-19T17:00:47;101142.13;;;2.25;73.94
59767;BME280;46248;58.364;25.582;2022-10-19T17:04:11;101154.19;;;2.20;74.30
59767;BME280;46248;58.364;25.582;2022-10-19T17:07:34;101117.34;;;1.97;74.83
59767;BME280;46248;58.364;25.582;2022-10-19T17:10:56;101142.19;;;2.13;74.72
59767;BME280;46248;58.364;25.582;2022-10-19T17:14:18;101150.81;;;2.15;74.98
59767;BME280;46248;58.364;25.582;2022-10-19T17:17:40;101168.03;;;2.16;75.50
59767;BME280;46248;58.364;25.582;2022-10-19T17:21:05;101144.81;;;2.07;76.06
59767;BME280;46248;58.364;25.582;2022-10-19T17:24:27;101119.94;;;1.94;76.13
59767;BME280;46248;58.364;25.582;2022-10-19T17:27:49;101163.66;;;2.23;76.71
59767;BME280;46248;58.364;25.582;2022-10-19T17:31:12;101145.63;;;2.18;76.80
59767;BME280;46248;58.364;25.582;2022-10-19T17:34:35;101157.59;;;2.33;76.57
59767;BME280;46248;58.364;25.582;2022-10-19T17:37:58;101158.38;;;2.38;77.11
59767;BME280;46248;58.364;25.582;2022-10-19T17:41:21;101154.09;;;2.36;76.90
59767;BME280;46248;58.364;25.582;2022-10-19T17:44:43;101154.03;;;2.42;76.76
59767;BME280;46248;58.364;25.582;2022-10-19T17:48:05;101171.25;;;2.49;77.20
59767;BME280;46248;58.364;25.582;2022-10-19T17:51:30;101148.91;;;2.40;76.68
59767;BME280;46248;58.364;25.582;2022-10-19T17:54:55;101168.63;;;2.52;76.89
59767;BME280;46248;58.364;25.582;2022-10-19T17:58:34;101158.31;;;2.49;77.54
59767;BME280;46248;58.364;25.582;2022-10-19T18:01:59;101164.31;;;2.51;76.81
59767;BME280;46248;58.364;25.582;2022-10-19T18:05:21;101169.47;;;2.51;76.81
59767;BME280;46248;58.364;25.582;2022-10-19T18:08:47;101171.25;;;2.49;77.37
59767;BME280;46248;58.364;25.582;2022-10-19T18:12:11;101148.97;;;2.31;77.84
59767;BME280;46248;58.364;25.582;2022-10-19T18:15:33;101181.59;;;2.49;77.61
59767;BME280;46248;58.364;25.582;2022-10-19T18:18:57;101183.28;;;2.50;78.02
59767;BME280;46248;58.364;25.582;2022-10-19T18:22:19;101179.81;;;2.51;78.02
59767;BME280;46248;58.364;25.582;2022-10-19T18:25:41;101185.00;;;2.51;77.49
59767;BME280;46248;58.364;25.582;2022-10-19T18:29:17;101187.59;;;2.52;77.84
59767;BME280;46248;58.364;25.582;2022-10-19T18:32:41;101156.69;;;2.36;77.93
59767;BME280;46248;58.364;25.582;2022-10-19T18:36:04;101191.88;;;2.53;78.29
59767;BME280;46248;58.364;25.582;2022-10-19T18:39:26;101191.03;;;2.50;77.59
59767;BME280;46248;58.364;25.582;2022-10-19T18:42:48;101185.03;;;2.49;78.10
59767;BME280;46248;58.364;25.582;2022-10-19T18:46:11;101191.06;;;2.48;78.22
59767;BME280;46248;58.364;25.582;2022-10-19T18:49:33;101185.09;;;2.39;78.51
59767;BME280;46248;58.364;25.582;2022-10-19T18:52:55;101197.19;;;2.37;78.08
59767;BME280;46248;58.364;25.582;2022-10-19T18:56:19;101194.63;;;2.29;78.16
59767;BME280;46248;58.364;25.582;2022-10-19T18:59:41;101195.53;;;2.23;78.47
59767;BME280;46248;58.364;25.582;2022-10-19T19:03:05;101195.56;;;2.17;78.43
59767;BME280;46248;58.364;25.582;2022-10-19T19:06:28;101174.97;;;2.05;78.70
59767;BME280;46248;58.364;25.582;2022-10-19T19:09:50;101184.50;;;2.00;78.23
59767;BME280;46248;58.364;25.582;2022-10-19T19:13:12;101191.34;;;2.01;78.27
59767;BME280;46248;58.364;25.582;2022-10-19T19:16:37;101190.53;;;1.93;78.79
59767;BME280;46248;58.364;25.582;2022-10-19T19:20:01;101199.16;;;1.90;78.55
59767;BME280;46248;58.364;25.582;2022-10-19T19:23:23;101196.63;;;1.82;78.65
59767;BME280;46248;58.364;25.582;2022-10-19T19:26:47;101202.66;;;1.75;78.72
59767;BME280;46248;58.364;25.582;2022-10-19T19:30:10;101205.28;;;1.68;79.44
59767;BME280;46248;58.364;25.582;2022-10-19T19:33:32;101204.44;;;1.56;79.69